sensor_id;sensor_type;location;lat;lon;timestamp;temperature;humidity
12289;DHT22;6207;49.308;7.336;2022-12-24T00:01:04;10.50;99.90
12289;DHT22;6207;49.308;7.336;2022-12-24T00:03:32;10.40;99.90
12289;DHT22;6207;49.308;7.336;2022-12-24T00:06:02;10.40;99.90
12289;DHT22;6207;49.308;7.336;2022-12-24T00:08:29;10.40;99.90
12289;DHT22;6207;49.308;7.336;2022-12-24T00:10:56;10.90;99.90
12289;DHT22;6207;49.308;7.336;2022-12-24T00:13:23;10.60;99.90
12289;DHT22;6207;49.308;7.336;2022-12-24T00:15:50;10.60;99.90
12289;DHT22;6207;49.308;7.336;2022-12-24T00:18:17;10.60;99.90
12289;DHT22;6207;49.308;7.336;2022-12-24T00:20:48;10.60;99.90
12289;DHT22;6207;49.308;7.336;2022-12-24T00:23:16;10.60;99.90
12289;DHT22;6207;49.308;7.336;2022-12-24T00:25:43;10.70;99.90
12289;DHT22;6207;49.308;7.336;2022-12-24T00:28:11;10.60;99.90
12289;DHT22;6207;49.308;7.336;2022-12-24T00:30:42;10.50;99.90
12289;DHT22;6207;49.308;7.336;2022-12-24T00:33:09;10.60;99.90
12289;DHT22;6207;49.308;7.336;2022-12-24T00:35:37;10.50;99.90
12289;DHT22;6207;49.308;7.336;2022-12-24T00:38:05;10.50;99.90
12289;DHT22;6207;49.308;7.336;2022-12-24T00:40:32;10.60;99.90
12289;DHT22;6207;49.308;7.336;2022-12-24T00:42:59;10.60;99.90
12289;DHT22;6207;49.308;7.336;2022-12-24T00:45:26;10.40;99.90
12289;DHT22;6207;49.308;7.336;2022-12-24T00:47:54;10.30;99.90
12289;DHT22;6207;49.308;7.336;2022-12-24T00:50:21;10.30;99.90
12289;DHT22;6207;49.308;7.336;2022-12-24T00:52:47;10.20;99.90
12289;DHT22;6207;49.308;7.336;2022-12-24T00:55:15;10.20;99.90
12289;DHT22;6207;49.308;7.336;2022-12-24T00:57:42;10.20;28.60
12289;DHT22;6207;49.308;7.336;2022-12-24T01:00:09;10.10;99.90
12289;DHT22;6207;49.308;7.336;2022-12-24T01:02:36;10.10;17.60
12289;DHT22;6207;49.308;7.336;2022-12-24T01:05:03;10.10;1.00
12289;DHT22;6207;49.308;7.336;2022-12-24T01:07:41;10.20;1.00
12289;DHT22;6207;49.308;7.336;2022-12-24T01:10:16;10.00;1.00
12289;DHT22;6207;49.308;7.336;2022-12-24T01:12:44;10.00;1.00
12289;DHT22;6207;49.308;7.336;2022-12-24T01:15:12;10.00;1.00
12289;DHT22;6207;49.308;7.336;2022-12-24T01:17:40;10.00;1.00
12289;DHT22;6207;49.308;7.336;2022-12-24T01:20:10;10.10;1.00
12289;DHT22;6207;49.308;7.336;2022-12-24T01:22:39;10.10;1.00
12289;DHT22;6207;49.308;7.336;2022-12-24T01:25:06;10.10;1.00
12289;DHT22;6207;49.308;7.336;2022-12-24T01:27:32;10.10;1.00
12289;DHT22;6207;49.308;7.336;2022-12-24T01:29:59;10.30;1.00
12289;DHT22;6207;49.308;7.336;2022-12-24T01:32:26;10.30;1.00
12289;DHT22;6207;49.308;7.336;2022-12-24T01:34:53;10.10;1.00
12289;DHT22;6207;49.308;7.336;2022-12-24T01:37:20;10.40;1.00
12289;DHT22;6207;49.308;7.336;2022-12-24T01:39:46;10.20;1.00
12289;DHT22;6207;49.308;7.336;2022-12-24T01:42:21;10.10;1.00
12289;DHT22;6207;49.308;7.336;2022-12-24T01:45:39;11.00;1.00
12289;DHT22;6207;49.308;7.336;2022-12-24T01:48:36;10.20;1.00
12289;DHT22;6207;49.308;7.336;2022-12-24T01:51:26;10.30;1.00
12289;DHT22;6207;49.308;7.336;2022-12-24T01:53:59;10.20;1.00
12289;DHT22;6207;49.308;7.336;2022-12-24T01:56:30;10.20;1.00
12289;DHT22;6207;49.308;7.336;2022-12-24T01:59:04;10.20;1.00
12289;DHT22;6207;49.308;7.336;2022-12-24T02:01:32;10.10;1.00
12289;DHT22;6207;49.308;7.336;2022-12-24T02:04:01;10.10;1.00
12289;DHT22;6207;49.308;7.336;2022-12-24T02:06:31;10.30;1.00
12289;DHT22;6207;49.308;7.336;2022-12-24T02:08:58;10.30;1.00
12289;DHT22;6207;49.308;7.336;2022-12-24T02:11:25;10.10;1.00
12289;DHT22;6207;49.308;7.336;2022-12-24T02:13:58;10.30;1.00
12289;DHT22;6207;49.308;7.336;2022-12-24T02:16:47;10.00;1.00
12289;DHT22;6207;49.308;7.336;2022-12-24T02:19:37;10.10;1.00
12289;DHT22;6207;49.308;7.336;2022-12-24T02:22:16;10.00;99.90
12289;DHT22;6207;49.308;7.336;2022-12-24T02:30:31;9.80;1.00
12289;DHT22;6207;49.308;7.336;2022-12-24T02:38:07;9.80;1.00
12289;DHT22;6207;49.308;7.336;2022-12-24T02:40:42;9.70;1.00
12289;DHT22;6207;49.308;7.336;2022-12-24T02:43:14;9.70;1.00
12289;DHT22;6207;49.308;7.336;2022-12-24T02:45:45;10.20;1.00
12289;DHT22;6207;49.308;7.336;2022-12-24T02:48:14;10.00;1.00
12289;DHT22;6207;49.308;7.336;2022-12-24T02:51:14;10.00;99.90
12289;DHT22;6207;49.308;7.336;2022-12-24T02:53:42;10.10;99.90
12289;DHT22;6207;49.308;7.336;2022-12-24T02:56:30;10.10;99.90
12289;DHT22;6207;49.308;7.336;2022-12-24T03:02:05;10.10;99.90
12289;DHT22;6207;49.308;7.336;2022-12-24T03:04:53;10.10;1.00
12289;DHT22;6207;49.308;7.336;2022-12-24T03:07:37;10.00;1.00
12289;DHT22;6207;49.308;7.336;2022-12-24T03:13:13;10.10;1.00
12289;DHT22;6207;49.308;7.336;2022-12-24T03:15:41;10.10;1.00
12289;DHT22;6207;49.308;7.336;2022-12-24T03:18:10;10.00;1.00
12289;DHT22;6207;49.308;7.336;2022-12-24T03:20:41;10.10;1.00
12289;DHT22;6207;49.308;7.336;2022-12-24T03:23:09;10.40;1.00
12289;DHT22;6207;49.308;7.336;2022-12-24T03:25:39;10.10;1.00
12289;DHT22;6207;49.308;7.336;2022-12-24T03:28:08;10.10;1.00
12289;DHT22;6207;49.308;7.336;2022-12-24T03:30:39;10.10;1.00
12289;DHT22;6207;49.308;7.336;2022-12-24T03:33:06;10.10;1.00
12289;DHT22;6207;49.308;7.336;2022-12-24T03:35:33;10.10;1.00
12289;DHT22;6207;49.308;7.336;2022-12-24T03:37:59;10.20;1.00
12289;DHT22;6207;49.308;7.336;2022-12-24T03:40:26;10.20;1.00
12289;DHT22;6207;49.308;7.336;2022-12-24T03:42:53;10.60;1.00
12289;DHT22;6207;49.308;7.336;2022-12-24T03:45:20;10.20;1.00
12289;DHT22;6207;49.308;7.336;2022-12-24T03:47:46;10.30;1.00
12289;DHT22;6207;49.308;7.336;2022-12-24T03:50:13;10.20;99.90
12289;DHT22;6207;49.308;7.336;2022-12-24T03:52:40;10.20;99.90
12289;DHT22;6207;49.308;7.336;2022-12-24T03:55:07;10.10;99.90
12289;DHT22;6207;49.308;7.336;2022-12-24T03:57:34;10.20;99.90
12289;DHT22;6207;49.308;7.336;2022-12-24T04:00:02;10.20;99.90
12289;DHT22;6207;49.308;7.336;2022-12-24T04:02:29;10.20;99.90
12289;DHT22;6207;49.308;7.336;2022-12-24T04:04:56;10.10;99.90
12289;DHT22;6207;49.308;7.336;2022-12-24T04:07:22;10.10;99.90
12289;DHT22;6207;49.308;7.336;2022-12-24T04:09:49;10.20;99.90
12289;DHT22;6207;49.308;7.336;2022-12-24T04:12:16;10.20;99.90
12289;DHT22;6207;49.308;7.336;2022-12-24T04:14:42;10.10;99.90
12289;DHT22;6207;49.308;7.336;2022-12-24T04:17:09;10.10;99.90
12289;DHT22;6207;49.308;7.336;2022-12-24T04:19:36;10.10;99.90
12289;DHT22;6207;49.308;7.336;2022-12-24T04:22:03;10.10;99.90
12289;DHT22;6207;49.308;7.336;2022-12-24T04:24:30;10.10;99.90
12289;DHT22;6207;49.308;7.336;2022-12-24T04:26:57;10.20;99.90
12289;DHT22;6207;49.308;7.336;2022-12-24T04:29:23;10.10;99.90
12289;DHT22;6207;49.308;7.336;2022-12-24T04:31:50;10.10;99.90
12289;DHT22;6207;49.308;7.336;2022-12-24T04:34:17;10.10;99.90
12289;DHT22;6207;49.308;7.336;2022-12-24T04:36:43;10.10;98.40
12289;DHT22;6207;49.308;7.336;2022-12-24T04:39:10;10.10;99.00
12289;DHT22;6207;49.308;7.336;2022-12-24T04:41:37;10.10;97.80
12289;DHT22;6207;49.308;7.336;2022-12-24T04:44:04;10.20;53.80
12289;DHT22;6207;49.308;7.336;2022-12-24T04:46:31;10.10;37.40
12289;DHT22;6207;49.308;7.336;2022-12-24T04:48:58;10.10;72.90
12289;DHT22;6207;49.308;7.336;2022-12-24T04:51:25;10.10;26.50
12289;DHT22;6207;49.308;7.336;2022-12-24T04:53:54;10.10;5.50
12289;DHT22;6207;49.308;7.336;2022-12-24T04:56:24;10.10;45.50
12289;DHT22;6207;49.308;7.336;2022-12-24T04:58:51;10.10;23.60
12289;DHT22;6207;49.308;7.336;2022-12-24T05:01:24;10.10;20.20
12289;DHT22;6207;49.308;7.336;2022-12-24T05:03:52;10.00;49.60
12289;DHT22;6207;49.308;7.336;2022-12-24T05:06:22;9.90;40.40
12289;DHT22;6207;49.308;7.336;2022-12-24T05:08:49;9.90;22.40
12289;DHT22;6207;49.308;7.336;2022-12-24T05:11:16;9.90;28.20
12289;DHT22;6207;49.308;7.336;2022-12-24T05:13:43;9.90;1.00
12289;DHT22;6207;49.308;7.336;2022-12-24T05:16:15;9.90;1.00
12289;DHT22;6207;49.308;7.336;2022-12-24T05:18:42;9.80;1.00
12289;DHT22;6207;49.308;7.336;2022-12-24T05:21:10;9.80;1.00
12289;DHT22;6207;49.308;7.336;2022-12-24T05:23:38;9.80;1.00
12289;DHT22;6207;49.308;7.336;2022-12-24T05:26:32;9.80;1.00
12289;DHT22;6207;49.308;7.336;2022-12-24T05:29:01;9.70;1.00
12289;DHT22;6207;49.308;7.336;2022-12-24T05:31:30;9.80;1.00
12289;DHT22;6207;49.308;7.336;2022-12-24T05:34:00;9.80;1.00
12289;DHT22;6207;49.308;7.336;2022-12-24T05:36:27;9.80;1.00
12289;DHT22;6207;49.308;7.336;2022-12-24T05:38:55;9.80;1.00
12289;DHT22;6207;49.308;7.336;2022-12-24T05:41:22;9.70;1.00
12289;DHT22;6207;49.308;7.336;2022-12-24T05:43:49;9.60;1.00
12289;DHT22;6207;49.308;7.336;2022-12-24T05:46:18;9.60;1.00
12289;DHT22;6207;49.308;7.336;2022-12-24T05:48:46;9.60;1.00
12289;DHT22;6207;49.308;7.336;2022-12-24T05:51:13;9.70;1.00
12289;DHT22;6207;49.308;7.336;2022-12-24T05:53:41;9.90;1.00
12289;DHT22;6207;49.308;7.336;2022-12-24T05:56:11;9.60;1.00
12289;DHT22;6207;49.308;7.336;2022-12-24T05:58:38;9.60;1.00
12289;DHT22;6207;49.308;7.336;2022-12-24T06:01:06;9.50;1.00
12289;DHT22;6207;49.308;7.336;2022-12-24T06:03:33;9.50;1.00
12289;DHT22;6207;49.308;7.336;2022-12-24T06:06:07;9.50;1.00
12289;DHT22;6207;49.308;7.336;2022-12-24T06:08:35;9.50;1.00
12289;DHT22;6207;49.308;7.336;2022-12-24T06:11:05;9.90;1.00
12289;DHT22;6207;49.308;7.336;2022-12-24T06:13:34;9.60;1.00
12289;DHT22;6207;49.308;7.336;2022-12-24T06:16:04;9.60;1.00
12289;DHT22;6207;49.308;7.336;2022-12-24T06:18:32;9.60;1.00
12289;DHT22;6207;49.308;7.336;2022-12-24T06:20:59;9.50;1.00
12289;DHT22;6207;49.308;7.336;2022-12-24T06:23:28;9.50;1.00
12289;DHT22;6207;49.308;7.336;2022-12-24T06:25:57;9.50;1.00
12289;DHT22;6207;49.308;7.336;2022-12-24T06:28:32;10.30;56.70
12289;DHT22;6207;49.308;7.336;2022-12-24T06:31:00;9.50;60.30
12289;DHT22;6207;49.308;7.336;2022-12-24T06:33:30;9.50;14.00
12289;DHT22;6207;49.308;7.336;2022-12-24T06:35:58;9.50;1.00
12289;DHT22;6207;49.308;7.336;2022-12-24T06:38:25;9.60;1.00
12289;DHT22;6207;49.308;7.336;2022-12-24T06:40:52;9.60;1.00
12289;DHT22;6207;49.308;7.336;2022-12-24T06:43:21;9.60;1.00
12289;DHT22;6207;49.308;7.336;2022-12-24T06:45:48;9.60;1.00
12289;DHT22;6207;49.308;7.336;2022-12-24T06:48:15;9.70;1.00
12289;DHT22;6207;49.308;7.336;2022-12-24T06:50:42;9.70;1.00
12289;DHT22;6207;49.308;7.336;2022-12-24T06:53:09;9.70;1.00
12289;DHT22;6207;49.308;7.336;2022-12-24T06:55:36;9.60;1.00
12289;DHT22;6207;49.308;7.336;2022-12-24T06:58:04;9.70;1.00
12289;DHT22;6207;49.308;7.336;2022-12-24T07:00:30;9.70;1.00
12289;DHT22;6207;49.308;7.336;2022-12-24T07:02:57;9.70;1.00
12289;DHT22;6207;49.308;7.336;2022-12-24T07:05:24;9.70;1.00
12289;DHT22;6207;49.308;7.336;2022-12-24T07:07:51;9.70;1.00
12289;DHT22;6207;49.308;7.336;2022-12-24T07:10:19;9.70;1.00
12289;DHT22;6207;49.308;7.336;2022-12-24T07:12:47;9.60;1.00
12289;DHT22;6207;49.308;7.336;2022-12-24T07:15:15;9.60;1.00
12289;DHT22;6207;49.308;7.336;2022-12-24T07:17:42;9.60;1.00
12289;DHT22;6207;49.308;7.336;2022-12-24T07:20:11;9.60;1.00
12289;DHT22;6207;49.308;7.336;2022-12-24T07:22:39;9.60;1.00
12289;DHT22;6207;49.308;7.336;2022-12-24T07:25:06;9.60;1.00
12289;DHT22;6207;49.308;7.336;2022-12-24T07:27:33;9.60;1.00
12289;DHT22;6207;49.308;7.336;2022-12-24T07:29:59;9.60;1.00
12289;DHT22;6207;49.308;7.336;2022-12-24T07:32:26;9.60;1.00
12289;DHT22;6207;49.308;7.336;2022-12-24T07:34:53;9.50;1.00
12289;DHT22;6207;49.308;7.336;2022-12-24T07:37:20;9.50;1.00
12289;DHT22;6207;49.308;7.336;2022-12-24T07:39:47;9.50;1.00
12289;DHT22;6207;49.308;7.336;2022-12-24T07:42:14;9.50;1.00
12289;DHT22;6207;49.308;7.336;2022-12-24T07:44:40;9.50;1.00
12289;DHT22;6207;49.308;7.336;2022-12-24T07:47:07;9.40;1.00
12289;DHT22;6207;49.308;7.336;2022-12-24T07:49:34;9.40;1.00
12289;DHT22;6207;49.308;7.336;2022-12-24T07:52:02;9.50;1.00
12289;DHT22;6207;49.308;7.336;2022-12-24T07:54:29;9.50;1.00
12289;DHT22;6207;49.308;7.336;2022-12-24T07:56:56;9.50;1.00
12289;DHT22;6207;49.308;7.336;2022-12-24T07:59:23;9.50;1.00
12289;DHT22;6207;49.308;7.336;2022-12-24T08:01:50;9.50;1.00
12289;DHT22;6207;49.308;7.336;2022-12-24T08:04:17;9.50;1.00
12289;DHT22;6207;49.308;7.336;2022-12-24T08:06:43;9.60;1.00
12289;DHT22;6207;49.308;7.336;2022-12-24T08:09:10;9.50;1.00
12289;DHT22;6207;49.308;7.336;2022-12-24T08:11:39;9.50;1.00
12289;DHT22;6207;49.308;7.336;2022-12-24T08:14:13;9.50;1.00
12289;DHT22;6207;49.308;7.336;2022-12-24T08:16:40;9.60;1.00
12289;DHT22;6207;49.308;7.336;2022-12-24T08:19:08;9.50;1.00
12289;DHT22;6207;49.308;7.336;2022-12-24T08:21:35;9.50;1.00
12289;DHT22;6207;49.308;7.336;2022-12-24T08:24:01;9.60;1.00
12289;DHT22;6207;49.308;7.336;2022-12-24T08:26:28;9.60;1.00
12289;DHT22;6207;49.308;7.336;2022-12-24T08:28:55;9.70;1.00
12289;DHT22;6207;49.308;7.336;2022-12-24T08:31:22;9.60;1.00
12289;DHT22;6207;49.308;7.336;2022-12-24T08:33:48;9.70;1.00
12289;DHT22;6207;49.308;7.336;2022-12-24T08:36:15;9.70;1.00
12289;DHT22;6207;49.308;7.336;2022-12-24T08:38:42;9.70;1.00
12289;DHT22;6207;49.308;7.336;2022-12-24T08:41:09;9.70;1.00
12289;DHT22;6207;49.308;7.336;2022-12-24T08:43:36;9.70;1.00
12289;DHT22;6207;49.308;7.336;2022-12-24T08:46:04;9.70;1.00
12289;DHT22;6207;49.308;7.336;2022-12-24T08:48:32;9.80;1.00
12289;DHT22;6207;49.308;7.336;2022-12-24T08:50:59;9.80;1.00
12289;DHT22;6207;49.308;7.336;2022-12-24T08:53:26;9.80;1.00
12289;DHT22;6207;49.308;7.336;2022-12-24T08:56:00;9.70;1.00
12289;DHT22;6207;49.308;7.336;2022-12-24T08:58:28;9.70;1.00
12289;DHT22;6207;49.308;7.336;2022-12-24T09:00:55;9.60;1.00
12289;DHT22;6207;49.308;7.336;2022-12-24T09:03:22;9.70;1.00
12289;DHT22;6207;49.308;7.336;2022-12-24T09:05:53;9.60;1.00
12289;DHT22;6207;49.308;7.336;2022-12-24T09:08:20;9.60;1.00
12289;DHT22;6207;49.308;7.336;2022-12-24T09:10:47;9.70;1.00
12289;DHT22;6207;49.308;7.336;2022-12-24T09:13:14;9.70;1.00
12289;DHT22;6207;49.308;7.336;2022-12-24T09:15:41;9.70;1.00
12289;DHT22;6207;49.308;7.336;2022-12-24T09:18:08;9.80;1.00
12289;DHT22;6207;49.308;7.336;2022-12-24T09:20:35;9.80;1.00
12289;DHT22;6207;49.308;7.336;2022-12-24T09:23:02;9.80;1.00
12289;DHT22;6207;49.308;7.336;2022-12-24T09:25:29;9.80;1.00
12289;DHT22;6207;49.308;7.336;2022-12-24T09:27:57;9.90;1.00
12289;DHT22;6207;49.308;7.336;2022-12-24T09:30:23;9.80;1.00
12289;DHT22;6207;49.308;7.336;2022-12-24T09:32:50;9.90;1.00
12289;DHT22;6207;49.308;7.336;2022-12-24T09:35:17;9.80;1.00
12289;DHT22;6207;49.308;7.336;2022-12-24T09:37:44;9.90;1.00
12289;DHT22;6207;49.308;7.336;2022-12-24T09:40:24;9.90;1.00
12289;DHT22;6207;49.308;7.336;2022-12-24T09:42:54;9.90;1.00
12289;DHT22;6207;49.308;7.336;2022-12-24T09:45:26;10.00;1.00
12289;DHT22;6207;49.308;7.336;2022-12-24T09:48:00;10.00;1.00
12289;DHT22;6207;49.308;7.336;2022-12-24T09:50:37;10.10;1.00
12289;DHT22;6207;49.308;7.336;2022-12-24T09:55:49;10.20;1.00
12289;DHT22;6207;49.308;7.336;2022-12-24T10:00:55;10.30;1.00
12289;DHT22;6207;49.308;7.336;2022-12-24T10:03:22;10.30;1.00
12289;DHT22;6207;49.308;7.336;2022-12-24T10:06:09;10.30;1.00
12289;DHT22;6207;49.308;7.336;2022-12-24T10:11:41;10.40;1.00
12289;DHT22;6207;49.308;7.336;2022-12-24T10:19:57;10.50;1.00
12289;DHT22;6207;49.308;7.336;2022-12-24T10:27:29;10.50;1.00
12289;DHT22;6207;49.308;7.336;2022-12-24T10:30:03;10.50;1.00
12289;DHT22;6207;49.308;7.336;2022-12-24T10:32:42;10.60;1.00
12289;DHT22;6207;49.308;7.336;2022-12-24T10:37:43;10.80;1.00
12289;DHT22;6207;49.308;7.336;2022-12-24T10:40:20;10.80;1.00
12289;DHT22;6207;49.308;7.336;2022-12-24T10:42:49;10.80;1.00
12289;DHT22;6207;49.308;7.336;2022-12-24T10:45:21;11.00;1.00
12289;DHT22;6207;49.308;7.336;2022-12-24T10:47:54;10.80;1.00
12289;DHT22;6207;49.308;7.336;2022-12-24T10:50:29;10.70;1.00
12289;DHT22;6207;49.308;7.336;2022-12-24T10:53:13;10.70;1.00
12289;DHT22;6207;49.308;7.336;2022-12-24T10:55:43;10.70;1.00
12289;DHT22;6207;49.308;7.336;2022-12-24T10:58:17;10.70;1.00
12289;DHT22;6207;49.308;7.336;2022-12-24T11:00:50;10.80;1.00
12289;DHT22;6207;49.308;7.336;2022-12-24T11:05:44;10.80;1.00
12289;DHT22;6207;49.308;7.336;2022-12-24T11:08:16;10.80;1.00
12289;DHT22;6207;49.308;7.336;2022-12-24T11:10:54;10.90;1.00
12289;DHT22;6207;49.308;7.336;2022-12-24T11:13:27;10.80;1.00
12289;DHT22;6207;49.308;7.336;2022-12-24T11:16:18;10.80;1.00
12289;DHT22;6207;49.308;7.336;2022-12-24T11:18:54;10.80;1.00
12289;DHT22;6207;49.308;7.336;2022-12-24T11:21:27;10.80;1.00
12289;DHT22;6207;49.308;7.336;2022-12-24T11:23:57;10.80;1.00
12289;DHT22;6207;49.308;7.336;2022-12-24T11:26:26;10.70;1.00
12289;DHT22;6207;49.308;7.336;2022-12-24T11:31:43;10.50;1.00
12289;DHT22;6207;49.308;7.336;2022-12-24T11:34:36;10.40;99.90
12289;DHT22;6207;49.308;7.336;2022-12-24T11:37:21;10.30;1.00
12289;DHT22;6207;49.308;7.336;2022-12-24T11:39:53;10.20;1.00
12289;DHT22;6207;49.308;7.336;2022-12-24T11:42:39;10.10;1.00
12289;DHT22;6207;49.308;7.336;2022-12-24T11:45:17;10.00;1.00
12289;DHT22;6207;49.308;7.336;2022-12-24T11:47:47;10.00;92.80
12289;DHT22;6207;49.308;7.336;2022-12-24T11:50:28;10.00;50.30
12289;DHT22;6207;49.308;7.336;2022-12-24T12:01:38;9.80;99.90
12289;DHT22;6207;49.308;7.336;2022-12-24T12:04:22;9.70;99.90
12289;DHT22;6207;49.308;7.336;2022-12-24T12:06:59;9.70;99.90
12289;DHT22;6207;49.308;7.336;2022-12-24T12:09:33;9.70;99.90
12289;DHT22;6207;49.308;7.336;2022-12-24T12:12:14;9.70;99.90
12289;DHT22;6207;49.308;7.336;2022-12-24T12:14:52;9.70;99.90
12289;DHT22;6207;49.308;7.336;2022-12-24T12:17:41;9.70;99.90
12289;DHT22;6207;49.308;7.336;2022-12-24T12:20:13;9.70;99.90
12289;DHT22;6207;49.308;7.336;2022-12-24T12:25:36;9.90;99.90
12289;DHT22;6207;49.308;7.336;2022-12-24T12:28:07;9.90;99.90
12289;DHT22;6207;49.308;7.336;2022-12-24T12:30:40;9.90;99.90
12289;DHT22;6207;49.308;7.336;2022-12-24T12:33:19;10.00;99.90
12289;DHT22;6207;49.308;7.336;2022-12-24T12:35:49;10.00;99.90
12289;DHT22;6207;49.308;7.336;2022-12-24T12:38:22;10.10;99.90
12289;DHT22;6207;49.308;7.336;2022-12-24T12:57:16;10.10;99.90
12289;DHT22;6207;49.308;7.336;2022-12-24T13:00:04;10.30;99.90
12289;DHT22;6207;49.308;7.336;2022-12-24T13:05:21;10.20;99.90
12289;DHT22;6207;49.308;7.336;2022-12-24T13:11:12;10.20;99.90
12289;DHT22;6207;49.308;7.336;2022-12-24T13:19:12;10.20;99.90
12289;DHT22;6207;49.308;7.336;2022-12-24T13:21:42;10.20;99.90
12289;DHT22;6207;49.308;7.336;2022-12-24T13:24:21;10.20;99.40
12289;DHT22;6207;49.308;7.336;2022-12-24T13:27:16;10.30;59.90
12289;DHT22;6207;49.308;7.336;2022-12-24T13:29:55;10.30;17.80
12289;DHT22;6207;49.308;7.336;2022-12-24T13:35:02;10.50;1.00
12289;DHT22;6207;49.308;7.336;2022-12-24T13:37:31;10.70;1.00
12289;DHT22;6207;49.308;7.336;2022-12-24T13:47:57;10.90;1.00
12289;DHT22;6207;49.308;7.336;2022-12-24T13:50:42;11.00;1.00
12289;DHT22;6207;49.308;7.336;2022-12-24T13:53:43;10.70;1.00
12289;DHT22;6207;49.308;7.336;2022-12-24T13:58:51;10.60;1.00
12289;DHT22;6207;49.308;7.336;2022-12-24T14:01:20;10.60;1.00
12289;DHT22;6207;49.308;7.336;2022-12-24T14:03:52;10.60;1.00
12289;DHT22;6207;49.308;7.336;2022-12-24T14:06:24;10.50;1.00
12289;DHT22;6207;49.308;7.336;2022-12-24T14:08:52;10.60;1.00
12289;DHT22;6207;49.308;7.336;2022-12-24T14:11:22;10.80;1.00
12289;DHT22;6207;49.308;7.336;2022-12-24T14:14:08;10.50;1.00
12289;DHT22;6207;49.308;7.336;2022-12-24T14:16:44;10.50;1.00
12289;DHT22;6207;49.308;7.336;2022-12-24T14:22:30;10.50;1.00
12289;DHT22;6207;49.308;7.336;2022-12-24T14:25:02;10.50;1.00
12289;DHT22;6207;49.308;7.336;2022-12-24T14:27:42;10.40;1.00
12289;DHT22;6207;49.308;7.336;2022-12-24T14:32:42;10.50;1.00
12289;DHT22;6207;49.308;7.336;2022-12-24T14:35:23;10.50;1.00
12289;DHT22;6207;49.308;7.336;2022-12-24T14:38:03;10.50;1.00
12289;DHT22;6207;49.308;7.336;2022-12-24T14:40:34;10.50;1.00
12289;DHT22;6207;49.308;7.336;2022-12-24T14:43:25;10.40;1.00
12289;DHT22;6207;49.308;7.336;2022-12-24T14:46:10;10.40;1.00
12289;DHT22;6207;49.308;7.336;2022-12-24T14:51:49;10.40;1.00
12289;DHT22;6207;49.308;7.336;2022-12-24T14:59:56;10.30;1.00
12289;DHT22;6207;49.308;7.336;2022-12-24T15:02:44;10.30;1.00
12289;DHT22;6207;49.308;7.336;2022-12-24T15:08:00;10.20;1.00
12289;DHT22;6207;49.308;7.336;2022-12-24T15:10:37;10.20;1.00
12289;DHT22;6207;49.308;7.336;2022-12-24T15:15:48;10.20;99.90
12289;DHT22;6207;49.308;7.336;2022-12-24T15:18:21;10.20;1.00
12289;DHT22;6207;49.308;7.336;2022-12-24T15:20:51;10.20;99.90
12289;DHT22;6207;49.308;7.336;2022-12-24T15:23:36;10.20;1.00
12289;DHT22;6207;49.308;7.336;2022-12-24T15:26:19;10.20;99.90
12289;DHT22;6207;49.308;7.336;2022-12-24T15:28:46;10.20;99.90
12289;DHT22;6207;49.308;7.336;2022-12-24T15:31:22;10.10;99.90
12289;DHT22;6207;49.308;7.336;2022-12-24T15:33:54;10.20;99.90
12289;DHT22;6207;49.308;7.336;2022-12-24T15:36:36;10.10;99.90
12289;DHT22;6207;49.308;7.336;2022-12-24T15:39:05;10.00;99.90
12289;DHT22;6207;49.308;7.336;2022-12-24T15:41:39;10.00;99.90
12289;DHT22;6207;49.308;7.336;2022-12-24T15:44:32;10.00;1.00
12289;DHT22;6207;49.308;7.336;2022-12-24T15:47:01;9.90;1.00
12289;DHT22;6207;49.308;7.336;2022-12-24T15:49:31;10.00;99.90
12289;DHT22;6207;49.308;7.336;2022-12-24T15:52:10;10.00;99.90
12289;DHT22;6207;49.308;7.336;2022-12-24T15:54:46;10.00;99.90
12289;DHT22;6207;49.308;7.336;2022-12-24T15:57:31;9.90;99.90
12289;DHT22;6207;49.308;7.336;2022-12-24T16:00:00;10.00;99.90
12289;DHT22;6207;49.308;7.336;2022-12-24T16:02:45;10.00;99.90
12289;DHT22;6207;49.308;7.336;2022-12-24T16:05:34;10.00;99.90
12289;DHT22;6207;49.308;7.336;2022-12-24T16:10:52;9.90;99.90
12289;DHT22;6207;49.308;7.336;2022-12-24T16:13:24;9.90;99.90
12289;DHT22;6207;49.308;7.336;2022-12-24T16:15:57;9.90;99.90
12289;DHT22;6207;49.308;7.336;2022-12-24T16:18:30;9.90;1.00
12289;DHT22;6207;49.308;7.336;2022-12-24T16:20:58;9.80;1.00
12289;DHT22;6207;49.308;7.336;2022-12-24T16:23:31;9.80;1.00
12289;DHT22;6207;49.308;7.336;2022-12-24T16:25:59;9.80;1.00
12289;DHT22;6207;49.308;7.336;2022-12-24T16:28:26;9.80;1.00
12289;DHT22;6207;49.308;7.336;2022-12-24T16:30:53;9.80;1.00
12289;DHT22;6207;49.308;7.336;2022-12-24T16:33:22;9.90;1.00
12289;DHT22;6207;49.308;7.336;2022-12-24T16:35:51;9.90;1.00
12289;DHT22;6207;49.308;7.336;2022-12-24T16:38:18;10.10;1.00
12289;DHT22;6207;49.308;7.336;2022-12-24T16:40:46;9.90;1.00
12289;DHT22;6207;49.308;7.336;2022-12-24T16:43:13;9.80;99.90
12289;DHT22;6207;49.308;7.336;2022-12-24T16:46:00;10.30;99.90
12289;DHT22;6207;49.308;7.336;2022-12-24T16:48:28;9.90;99.90
12289;DHT22;6207;49.308;7.336;2022-12-24T16:50:55;9.90;1.00
12289;DHT22;6207;49.308;7.336;2022-12-24T16:53:23;9.90;1.00
12289;DHT22;6207;49.308;7.336;2022-12-24T16:55:50;9.80;1.00
12289;DHT22;6207;49.308;7.336;2022-12-24T16:58:18;9.80;1.00
12289;DHT22;6207;49.308;7.336;2022-12-24T17:00:45;9.80;1.00
12289;DHT22;6207;49.308;7.336;2022-12-24T17:03:13;9.80;99.90
12289;DHT22;6207;49.308;7.336;2022-12-24T17:05:42;9.90;99.90
12289;DHT22;6207;49.308;7.336;2022-12-24T17:08:10;9.90;99.90
12289;DHT22;6207;49.308;7.336;2022-12-24T17:10:36;9.90;99.90
12289;DHT22;6207;49.308;7.336;2022-12-24T17:13:03;10.10;99.90
12289;DHT22;6207;49.308;7.336;2022-12-24T17:15:30;10.00;99.90
12289;DHT22;6207;49.308;7.336;2022-12-24T17:17:57;10.10;99.90
12289;DHT22;6207;49.308;7.336;2022-12-24T17:20:24;10.10;99.90
12289;DHT22;6207;49.308;7.336;2022-12-24T17:22:51;10.10;99.90
12289;DHT22;6207;49.308;7.336;2022-12-24T17:25:18;10.00;99.90
12289;DHT22;6207;49.308;7.336;2022-12-24T17:27:45;10.00;99.90
12289;DHT22;6207;49.308;7.336;2022-12-24T17:30:12;10.00;99.90
12289;DHT22;6207;49.308;7.336;2022-12-24T17:32:38;9.90;99.90
12289;DHT22;6207;49.308;7.336;2022-12-24T17:35:06;9.90;99.90
12289;DHT22;6207;49.308;7.336;2022-12-24T17:37:33;9.90;99.90
12289;DHT22;6207;49.308;7.336;2022-12-24T17:40:00;9.90;99.90
12289;DHT22;6207;49.308;7.336;2022-12-24T17:42:27;9.90;99.90
12289;DHT22;6207;49.308;7.336;2022-12-24T17:44:53;9.90;99.90
12289;DHT22;6207;49.308;7.336;2022-12-24T17:47:20;9.90;99.90
12289;DHT22;6207;49.308;7.336;2022-12-24T17:49:47;9.90;99.90
12289;DHT22;6207;49.308;7.336;2022-12-24T17:52:14;9.90;99.90
12289;DHT22;6207;49.308;7.336;2022-12-24T17:54:40;9.90;99.90
12289;DHT22;6207;49.308;7.336;2022-12-24T17:57:07;9.90;99.90
12289;DHT22;6207;49.308;7.336;2022-12-24T17:59:34;9.90;99.90
12289;DHT22;6207;49.308;7.336;2022-12-24T18:02:01;9.80;99.90
12289;DHT22;6207;49.308;7.336;2022-12-24T18:04:27;9.80;99.90
12289;DHT22;6207;49.308;7.336;2022-12-24T18:06:54;9.80;99.90
12289;DHT22;6207;49.308;7.336;2022-12-24T18:09:28;10.40;99.90
12289;DHT22;6207;49.308;7.336;2022-12-24T18:11:55;9.80;99.90
12289;DHT22;6207;49.308;7.336;2022-12-24T18:14:22;9.80;99.90
12289;DHT22;6207;49.308;7.336;2022-12-24T18:16:49;9.90;73.50
12289;DHT22;6207;49.308;7.336;2022-12-24T18:19:16;9.90;98.50
12289;DHT22;6207;49.308;7.336;2022-12-24T18:21:43;9.90;32.20
12289;DHT22;6207;49.308;7.336;2022-12-24T18:24:11;9.90;37.00